sensor_id;sensor_type;location;lat;lon;timestamp;P1;durP1;ratioP1;P2;durP2;ratioP2
55112;SDS011;41006;50.920;3.456;2023-03-14T00:00:30;15.27;;;14.15;;
55112;SDS011;41006;50.920;3.456;2023-03-14T00:01:07;14.82;;;13.73;;
55112;SDS011;41006;50.920;3.456;2023-03-14T00:01:37;15.50;;;13.95;;
55112;SDS011;41006;50.920;3.456;2023-03-14T00:02:07;15.57;;;14.35;;
55112;SDS011;41006;50.920;3.456;2023-03-14T00:02:40;15.05;;;13.82;;
55112;SDS011;41006;50.920;3.456;2023-03-14T00:03:10;15.88;;;14.52;;
55112;SDS011;41006;50.920;3.456;2023-03-14T00:03:43;16.30;;;14.93;;
55112;SDS011;41006;50.920;3.456;2023-03-14T00:04:13;16.13;;;14.70;;
55112;SDS011;41006;50.920;3.456;2023-03-14T00:04:46;16.85;;;15.35;;
55112;SDS011;41006;50.920;3.456;2023-03-14T00:05:16;16.25;;;14.70;;
55112;SDS011;41006;50.920;3.456;2023-03-14T00:05:46;15.52;;;14.05;;
55112;SDS011;41006;50.920;3.456;2023-03-14T00:06:17;15.05;;;13.52;;
55112;SDS011;41006;50.920;3.456;2023-03-14T00:06:50;15.15;;;13.73;;
55112;SDS011;41006;50.920;3.456;2023-03-14T00:07:20;15.23;;;13.98;;
55112;SDS011;41006;50.920;3.456;2023-03-14T00:07:53;14.73;;;13.40;;
55112;SDS011;41006;50.920;3.456;2023-03-14T00:08:26;15.20;;;13.75;;
55112;SDS011;41006;50.920;3.456;2023-03-14T00:08:56;18.55;;;14.18;;
55112;SDS011;41006;50.920;3.456;2023-03-14T00:09:27;14.75;;;13.45;;
55112;SDS011;41006;50.920;3.456;2023-03-14T00:09:59;15.13;;;13.82;;
55112;SDS011;41006;50.920;3.456;2023-03-14T00:10:30;14.85;;;13.65;;
55112;SDS011;41006;50.920;3.456;2023-03-14T00:11:13;17.58;;;13.57;;
55112;SDS011;41006;50.920;3.456;2023-03-14T00:11:44;14.93;;;12.88;;
55112;SDS011;41006;50.920;3.456;2023-03-14T00:12:14;14.55;;;12.93;;
55112;SDS011;41006;50.920;3.456;2023-03-14T00:12:44;14.68;;;13.23;;
55112;SDS011;41006;50.920;3.456;2023-03-14T00:13:17;14.63;;;13.50;;
55112;SDS011;41006;50.920;3.456;2023-03-14T00:13:47;16.35;;;13.20;;
55112;SDS011;41006;50.920;3.456;2023-03-14T00:14:18;14.60;;;13.10;;
55112;SDS011;41006;50.920;3.456;2023-03-14T00:14:48;13.98;;;12.82;;
55112;SDS011;41006;50.920;3.456;2023-03-14T00:15:20;13.57;;;12.40;;
55112;SDS011;41006;50.920;3.456;2023-03-14T00:15:51;17.20;;;13.63;;
55112;SDS011;41006;50.920;3.456;2023-03-14T00:16:21;15.50;;;13.80;;
55112;SDS011;41006;50.920;3.456;2023-03-14T00:16:54;15.18;;;13.75;;
55112;SDS011;41006;50.920;3.456;2023-03-14T00:17:25;15.45;;;13.85;;
55112;SDS011;41006;50.920;3.456;2023-03-14T00:17:55;16.95;;;13.85;;
55112;SDS011;41006;50.920;3.456;2023-03-14T00:18:28;15.00;;;13.45;;
55112;SDS011;41006;50.920;3.456;2023-03-14T00:18:58;14.20;;;13.10;;
55112;SDS011;41006;50.920;3.456;2023-03-14T00:19:29;15.23;;;13.85;;
55112;SDS011;41006;50.920;3.456;2023-03-14T00:19:59;15.45;;;13.35;;
55112;SDS011;41006;50.920;3.456;2023-03-14T00:20:40;17.90;;;13.68;;
55112;SDS011;41006;50.920;3.456;2023-03-14T00:21:10;13.85;;;12.57;;
55112;SDS011;41006;50.920;3.456;2023-03-14T00:21:40;14.30;;;12.77;;
55112;SDS011;41006;50.920;3.456;2023-03-14T00:22:13;15.98;;;13.02;;
55112;SDS011;41006;50.920;3.456;2023-03-14T00:22:43;14.70;;;13.15;;
55112;SDS011;41006;50.920;3.456;2023-03-14T00:23:14;14.40;;;12.98;;
55112;SDS011;41006;50.920;3.456;2023-03-14T00:23:44;14.00;;;13.05;;
55112;SDS011;41006;50.920;3.456;2023-03-14T00:24:14;14.13;;;12.98;;
55112;SDS011;41006;50.920;3.456;2023-03-14T00:24:44;14.18;;;12.82;;
55112;SDS011;41006;50.920;3.456;2023-03-14T00:25:15;17.95;;;13.07;;
55112;SDS011;41006;50.920;3.456;2023-03-14T00:25:47;19.27;;;12.77;;
55112;SDS011;41006;50.920;3.456;2023-03-14T00:26:18;13.07;;;11.40;;
55112;SDS011;41006;50.920;3.456;2023-03-14T00:26:49;18.35;;;13.50;;
55112;SDS011;41006;50.920;3.456;2023-03-14T00:27:19;13.65;;;12.65;;
55112;SDS011;41006;50.920;3.456;2023-03-14T00:27:52;17.60;;;13.68;;
55112;SDS011;41006;50.920;3.456;2023-03-14T00:28:22;15.80;;;13.88;;
55112;SDS011;41006;50.920;3.456;2023-03-14T00:28:53;17.20;;;14.00;;
55112;SDS011;41006;50.920;3.456;2023-03-14T00:29:23;17.48;;;13.70;;
55112;SDS011;41006;50.920;3.456;2023-03-14T00:29:53;15.45;;;14.05;;
55112;SDS011;41006;50.920;3.456;2023-03-14T00:30:24;16.42;;;13.70;;
55112;SDS011;41006;50.920;3.456;2023-03-14T00:30:54;14.65;;;13.23;;
55112;SDS011;41006;50.920;3.456;2023-03-14T00:31:24;13.52;;;12.40;;
55112;SDS011;41006;50.920;3.456;2023-03-14T00:31:54;21.90;;;13.85;;
55112;SDS011;41006;50.920;3.456;2023-03-14T00:32:25;14.77;;;13.38;;
55112;SDS011;41006;50.920;3.456;2023-03-14T00:32:59;14.48;;;12.93;;
55112;SDS011;41006;50.920;3.456;2023-03-14T00:33:33;14.02;;;12.70;;
55112;SDS011;41006;50.920;3.456;2023-03-14T00:34:03;18.27;;;13.40;;
55112;SDS011;41006;50.920;3.456;2023-03-14T00:34:33;16.88;;;12.80;;
55112;SDS011;41006;50.920;3.456;2023-03-14T00:35:06;16.48;;;13.90;;
55112;SDS011;41006;50.920;3.456;2023-03-14T00:35:36;14.55;;;13.20;;
55112;SDS011;41006;50.920;3.456;2023-03-14T00:36:11;15.20;;;13.65;;
55112;SDS011;41006;50.920;3.456;2023-03-14T00:36:42;15.95;;;14.38;;
55112;SDS011;41006;50.920;3.456;2023-03-14T00:37:12;15.60;;;14.02;;
55112;SDS011;41006;50.920;3.456;2023-03-14T00:37:42;15.73;;;14.30;;
55112;SDS011;41006;50.920;3.456;2023-03-14T00:38:15;15.88;;;14.43;;
55112;SDS011;41006;50.920;3.456;2023-03-14T00:38:46;16.52;;;14.95;;
55112;SDS011;41006;50.920;3.456;2023-03-14T00:39:20;17.60;;;15.48;;
55112;SDS011;41006;50.920;3.456;2023-03-14T00:39:51;19.13;;;14.93;;
55112;SDS011;41006;50.920;3.456;2023-03-14T00:40:21;15.20;;;13.80;;
55112;SDS011;41006;50.920;3.456;2023-03-14T00:40:51;15.77;;;13.80;;
55112;SDS011;41006;50.920;3.456;2023-03-14T00:41:24;16.58;;;14.75;;
55112;SDS011;41006;50.920;3.456;2023-03-14T00:41:57;18.95;;;13.65;;
55112;SDS011;41006;50.920;3.456;2023-03-14T00:42:27;15.52;;;13.70;;
55112;SDS011;41006;50.920;3.456;2023-03-14T00:43:04;19.65;;;14.43;;
55112;SDS011;41006;50.920;3.456;2023-03-14T00:43:34;17.90;;;13.88;;
55112;SDS011;41006;50.920;3.456;2023-03-14T00:44:05;15.98;;;14.27;;
55112;SDS011;41006;50.920;3.456;2023-03-14T00:44:35;15.50;;;13.40;;
55112;SDS011;41006;50.920;3.456;2023-03-14T00:45:06;14.27;;;13.05;;
55112;SDS011;41006;50.920;3.456;2023-03-14T00:45:41;15.57;;;13.95;;
55112;SDS011;41006;50.920;3.456;2023-03-14T00:46:11;16.60;;;14.40;;
55112;SDS011;41006;50.920;3.456;2023-03-14T00:46:42;15.38;;;13.60;;
55112;SDS011;41006;50.920;3.456;2023-03-14T00:47:14;15.85;;;14.32;;
55112;SDS011;41006;50.920;3.456;2023-03-14T00:47:45;20.33;;;15.57;;
55112;SDS011;41006;50.920;3.456;2023-03-14T00:48:18;16.58;;;13.38;;
55112;SDS011;41006;50.920;3.456;2023-03-14T00:48:48;18.73;;;14.77;;
55112;SDS011;41006;50.920;3.456;2023-03-14T00:49:19;14.93;;;13.27;;
55112;SDS011;41006;50.920;3.456;2023-03-14T00:49:49;15.93;;;14.00;;
55112;SDS011;41006;50.920;3.456;2023-03-14T00:50:21;15.63;;;13.73;;
55112;SDS011;41006;50.920;3.456;2023-03-14T00:50:52;15.65;;;13.93;;
55112;SDS011;41006;50.920;3.456;2023-03-14T00:51:22;18.63;;;15.15;;
55112;SDS011;41006;50.920;3.456;2023-03-14T00:51:52;15.50;;;13.82;;
55112;SDS011;41006;50.920;3.456;2023-03-14T00:52:22;14.90;;;13.43;;
55112;SDS011;41006;50.920;3.456;2023-03-14T00:52:55;16.23;;;13.70;;
55112;SDS011;41006;50.920;3.456;2023-03-14T00:53:25;19.45;;;14.38;;
55112;SDS011;41006;50.920;3.456;2023-03-14T00:53:56;17.38;;;13.23;;
55112;SDS011;41006;50.920;3.456;2023-03-14T00:54:28;18.63;;;13.43;;
55112;SDS011;41006;50.920;3.456;2023-03-14T00:55:01;17.23;;;12.98;;
55112;SDS011;41006;50.920;3.456;2023-03-14T00:55:35;15.35;;;13.73;;
55112;SDS011;41006;50.920;3.456;2023-03-14T00:56:10;22.17;;;13.77;;
55112;SDS011;41006;50.920;3.456;2023-03-14T00:56:43;16.67;;;14.25;;
55112;SDS011;41006;50.920;3.456;2023-03-14T00:57:13;16.88;;;14.65;;
55112;SDS011;41006;50.920;3.456;2023-03-14T00:57:43;16.25;;;14.68;;
55112;SDS011;41006;50.920;3.456;2023-03-14T00:58:14;16.02;;;14.10;;
55112;SDS011;41006;50.920;3.456;2023-03-14T00:58:45;15.65;;;14.20;;
55112;SDS011;41006;50.920;3.456;2023-03-14T00:59:15;19.33;;;14.18;;
55112;SDS011;41006;50.920;3.456;2023-03-14T00:59:46;16.48;;;14.23;;
55112;SDS011;41006;50.920;3.456;2023-03-14T01:00:18;19.83;;;14.40;;
55112;SDS011;41006;50.920;3.456;2023-03-14T01:00:48;16.23;;;14.40;;
55112;SDS011;41006;50.920;3.456;2023-03-14T01:01:19;16.95;;;14.20;;
55112;SDS011;41006;50.920;3.456;2023-03-14T01:01:49;20.55;;;14.88;;
55112;SDS011;41006;50.920;3.456;2023-03-14T01:02:19;15.32;;;13.77;;
55112;SDS011;41006;50.920;3.456;2023-03-14T01:02:52;16.75;;;13.43;;
55112;SDS011;41006;50.920;3.456;2023-03-14T01:03:25;17.65;;;13.75;;
55112;SDS011;41006;50.920;3.456;2023-03-14T01:03:55;19.30;;;13.52;;
55112;SDS011;41006;50.920;3.456;2023-03-14T01:04:26;18.35;;;13.45;;
55112;SDS011;41006;50.920;3.456;2023-03-14T01:04:56;16.02;;;13.30;;
55112;SDS011;41006;50.920;3.456;2023-03-14T01:05:29;15.52;;;13.88;;
55112;SDS011;41006;50.920;3.456;2023-03-14T01:06:53;15.30;;;13.00;;
55112;SDS011;41006;50.920;3.456;2023-03-14T01:07:23;14.75;;;12.73;;
55112;SDS011;41006;50.920;3.456;2023-03-14T01:07:54;17.65;;;13.88;;
55112;SDS011;41006;50.920;3.456;2023-03-14T01:08:24;17.77;;;13.27;;
55112;SDS011;41006;50.920;3.456;2023-03-14T01:08:55;19.05;;;13.68;;
55112;SDS011;41006;50.920;3.456;2023-03-14T01:09:27;14.20;;;12.82;;
55112;SDS011;41006;50.920;3.456;2023-03-14T01:09:58;15.77;;;14.23;;
55112;SDS011;41006;50.920;3.456;2023-03-14T01:10:28;17.15;;;13.77;;
55112;SDS011;41006;50.920;3.456;2023-03-14T01:11:04;14.38;;;12.95;;
55112;SDS011;41006;50.920;3.456;2023-03-14T01:11:35;18.27;;;13.32;;
55112;SDS011;41006;50.920;3.456;2023-03-14T01:12:06;13.95;;;12.73;;
55112;SDS011;41006;50.920;3.456;2023-03-14T01:12:36;19.65;;;13.68;;
55112;SDS011;41006;50.920;3.456;2023-03-14T01:13:07;13.48;;;12.32;;
55112;SDS011;41006;50.920;3.456;2023-03-14T01:13:37;13.52;;;12.20;;
55112;SDS011;41006;50.920;3.456;2023-03-14T01:14:08;20.92;;;12.82;;
55112;SDS011;41006;50.920;3.456;2023-03-14T01:14:38;23.00;;;14.80;;
55112;SDS011;41006;50.920;3.456;2023-03-14T01:15:08;15.05;;;13.18;;
55112;SDS011;41006;50.920;3.456;2023-03-14T01:15:39;15.32;;;13.77;;
55112;SDS011;41006;50.920;3.456;2023-03-14T01:16:11;13.98;;;12.65;;
55112;SDS011;41006;50.920;3.456;2023-03-14T01:16:42;18.08;;;14.48;;
55112;SDS011;41006;50.920;3.456;2023-03-14T01:17:14;15.55;;;13.93;;
55112;SDS011;41006;50.920;3.456;2023-03-14T01:17:48;17.65;;;14.55;;
55112;SDS011;41006;50.920;3.456;2023-03-14T01:18:18;15.73;;;14.32;;
55112;SDS011;41006;50.920;3.456;2023-03-14T01:18:48;16.85;;;12.95;;
55112;SDS011;41006;50.920;3.456;2023-03-14T01:19:20;13.95;;;12.48;;
55112;SDS011;41006;50.920;3.456;2023-03-14T01:19:54;18.05;;;13.23;;
55112;SDS011;41006;50.920;3.456;2023-03-14T01:20:25;21.58;;;14.10;;
55112;SDS011;41006;50.920;3.456;2023-03-14T01:20:55;14.32;;;12.85;;
55112;SDS011;41006;50.920;3.456;2023-03-14T01:21:27;14.80;;;12.48;;
55112;SDS011;41006;50.920;3.456;2023-03-14T01:21:57;14.93;;;13.32;;
55112;SDS011;41006;50.920;3.456;2023-03-14T01:22:30;13.02;;;11.68;;
55112;SDS011;41006;50.920;3.456;2023-03-14T01:23:00;13.45;;;12.18;;
55112;SDS011;41006;50.920;3.456;2023-03-14T01:23:33;15.85;;;12.90;;
55112;SDS011;41006;50.920;3.456;2023-03-14T01:24:04;16.75;;;13.55;;
55112;SDS011;41006;50.920;3.456;2023-03-14T01:24:37;13.88;;;12.80;;
55112;SDS011;41006;50.920;3.456;2023-03-14T01:25:11;15.65;;;13.38;;
55112;SDS011;41006;50.920;3.456;2023-03-14T01:25:41;15.20;;;13.60;;
55112;SDS011;41006;50.920;3.456;2023-03-14T01:26:14;17.23;;;13.68;;
55112;SDS011;41006;50.920;3.456;2023-03-14T01:26:45;18.35;;;14.25;;
55112;SDS011;41006;50.920;3.456;2023-03-14T01:27:17;17.75;;;14.70;;
55112;SDS011;41006;50.920;3.456;2023-03-14T01:27:47;15.60;;;14.00;;
55112;SDS011;41006;50.920;3.456;2023-03-14T01:28:20;15.80;;;13.80;;
55112;SDS011;41006;50.920;3.456;2023-03-14T01:28:51;16.23;;;14.50;;
55112;SDS011;41006;50.920;3.456;2023-03-14T01:29:22;16.58;;;14.02;;
55112;SDS011;41006;50.920;3.456;2023-03-14T01:29:54;15.80;;;13.43;;
55112;SDS011;41006;50.920;3.456;2023-03-14T01:30:25;15.15;;;13.73;;
55112;SDS011;41006;50.920;3.456;2023-03-14T01:30:55;15.23;;;13.63;;
55112;SDS011;41006;50.920;3.456;2023-03-14T01:31:26;16.75;;;13.57;;
55112;SDS011;41006;50.920;3.456;2023-03-14T01:31:59;14.80;;;13.32;;
55112;SDS011;41006;50.920;3.456;2023-03-14T01:32:29;19.80;;;14.98;;
55112;SDS011;41006;50.920;3.456;2023-03-14T01:33:04;15.82;;;14.23;;
55112;SDS011;41006;50.920;3.456;2023-03-14T01:33:37;16.50;;;14.20;;
55112;SDS011;41006;50.920;3.456;2023-03-14T01:34:08;16.42;;;14.85;;
55112;SDS011;41006;50.920;3.456;2023-03-14T01:34:38;15.50;;;14.10;;
55112;SDS011;41006;50.920;3.456;2023-03-14T01:35:10;14.85;;;13.45;;
55112;SDS011;41006;50.920;3.456;2023-03-14T01:35:43;17.33;;;14.73;;
55112;SDS011;41006;50.920;3.456;2023-03-14T01:36:13;17.10;;;14.77;;
55112;SDS011;41006;50.920;3.456;2023-03-14T01:36:46;16.55;;;14.90;;
55112;SDS011;41006;50.920;3.456;2023-03-14T01:37:16;18.27;;;14.45;;
55112;SDS011;41006;50.920;3.456;2023-03-14T01:37:47;16.38;;;13.32;;
55112;SDS011;41006;50.920;3.456;2023-03-14T01:38:19;14.77;;;13.27;;
55112;SDS011;41006;50.920;3.456;2023-03-14T01:38:50;16.20;;;12.93;;
55112;SDS011;41006;50.920;3.456;2023-03-14T01:39:20;13.77;;;12.48;;
55112;SDS011;41006;50.920;3.456;2023-03-14T01:39:50;13.90;;;12.75;;
55112;SDS011;41006;50.920;3.456;2023-03-14T01:40:21;14.43;;;13.10;;
55112;SDS011;41006;50.920;3.456;2023-03-14T01:40:51;14.57;;;12.85;;
55112;SDS011;41006;50.920;3.456;2023-03-14T01:41:22;15.05;;;13.70;;
55112;SDS011;41006;50.920;3.456;2023-03-14T01:41:56;14.38;;;13.00;;
55112;SDS011;41006;50.920;3.456;2023-03-14T01:42:26;14.98;;;13.50;;
55112;SDS011;41006;50.920;3.456;2023-03-14T01:42:57;21.90;;;14.60;;
55112;SDS011;41006;50.920;3.456;2023-03-14T01:43:30;14.60;;;13.45;;
55112;SDS011;41006;50.920;3.456;2023-03-14T01:44:00;14.10;;;12.85;;
55112;SDS011;41006;50.920;3.456;2023-03-14T01:47:14;14.57;;;13.27;;
55112;SDS011;41006;50.920;3.456;2023-03-14T01:47:44;14.52;;;13.25;;
55112;SDS011;41006;50.920;3.456;2023-03-14T01:48:14;14.23;;;13.02;;
55112;SDS011;41006;50.920;3.456;2023-03-14T01:49:19;14.15;;;13.02;;
55112;SDS011;41006;50.920;3.456;2023-03-14T01:49:56;14.00;;;13.00;;
55112;SDS011;41006;50.920;3.456;2023-03-14T01:50:30;14.40;;;13.00;;
55112;SDS011;41006;50.920;3.456;2023-03-14T01:51:03;14.70;;;13.35;;
55112;SDS011;41006;50.920;3.456;2023-03-14T01:52:33;13.30;;;12.15;;
55112;SDS011;41006;50.920;3.456;2023-03-14T01:53:05;15.40;;;14.07;;
55112;SDS011;41006;50.920;3.456;2023-03-14T01:53:38;14.80;;;13.30;;
55112;SDS011;41006;50.920;3.456;2023-03-14T01:54:11;15.10;;;13.70;;
55112;SDS011;41006;50.920;3.456;2023-03-14T01:55:13;15.13;;;13.57;;
55112;SDS011;41006;50.920;3.456;2023-03-14T01:55:48;14.55;;;13.30;;
55112;SDS011;41006;50.920;3.456;2023-03-14T01:56:18;15.05;;;13.68;;
55112;SDS011;41006;50.920;3.456;2023-03-14T01:56:50;16.45;;;14.65;;
55112;SDS011;41006;50.920;3.456;2023-03-14T01:57:30;14.75;;;13.50;;
55112;SDS011;41006;50.920;3.456;2023-03-14T01:58:07;14.98;;;13.40;;
55112;SDS011;41006;50.920;3.456;2023-03-14T01:58:37;14.18;;;13.05;;
55112;SDS011;41006;50.920;3.456;2023-03-14T01:59:10;14.93;;;13.50;;
55112;SDS011;41006;50.920;3.456;2023-03-14T01:59:44;14.50;;;13.40;;
55112;SDS011;41006;50.920;3.456;2023-03-14T02:00:19;14.27;;;13.07;;
55112;SDS011;41006;50.920;3.456;2023-03-14T02:00:50;13.88;;;12.80;;
55112;SDS011;41006;50.920;3.456;2023-03-14T02:01:21;14.63;;;13.27;;
55112;SDS011;41006;50.920;3.456;2023-03-14T02:01:54;14.05;;;13.00;;
55112;SDS011;41006;50.920;3.456;2023-03-14T02:02:28;14.15;;;13.00;;
55112;SDS011;41006;50.920;3.456;2023-03-14T02:03:00;13.00;;;12.07;;
55112;SDS011;41006;50.920;3.456;2023-03-14T02:03:31;13.95;;;12.65;;
55112;SDS011;41006;50.920;3.456;2023-03-14T02:04:04;14.57;;;13.38;;
55112;SDS011;41006;50.920;3.456;2023-03-14T02:04:40;13.80;;;12.68;;
55112;SDS011;41006;50.920;3.456;2023-03-14T02:05:12;13.60;;;12.75;;
55112;SDS011;41006;50.920;3.456;2023-03-14T02:05:47;14.50;;;13.23;;
55112;SDS011;41006;50.920;3.456;2023-03-14T02:06:21;13.02;;;12.23;;
55112;SDS011;41006;50.920;3.456;2023-03-14T02:06:55;13.10;;;12.20;;
55112;SDS011;41006;50.920;3.456;2023-03-14T02:07:30;13.15;;;11.98;;
55112;SDS011;41006;50.920;3.456;2023-03-14T02:08:02;13.52;;;12.27;;
55112;SDS011;41006;50.920;3.456;2023-03-14T02:08:33;12.68;;;11.48;;
55112;SDS011;41006;50.920;3.456;2023-03-14T02:09:05;13.43;;;12.30;;
55112;SDS011;41006;50.920;3.456;2023-03-14T02:09:36;15.38;;;14.00;;
55112;SDS011;41006;50.920;3.456;2023-03-14T02:10:09;14.85;;;13.45;;
55112;SDS011;41006;50.920;3.456;2023-03-14T02:10:46;14.55;;;13.15;;
55112;SDS011;41006;50.920;3.456;2023-03-14T02:11:17;14.40;;;13.07;;
55112;SDS011;41006;50.920;3.456;2023-03-14T02:11:48;14.63;;;13.43;;
55112;SDS011;41006;50.920;3.456;2023-03-14T02:12:21;14.65;;;13.52;;
55112;SDS011;41006;50.920;3.456;2023-03-14T02:12:52;13.70;;;12.80;;
55112;SDS011;41006;50.920;3.456;2023-03-14T02:13:26;15.68;;;14.38;;
55112;SDS011;41006;50.920;3.456;2023-03-14T02:13:56;14.10;;;13.25;;
55112;SDS011;41006;50.920;3.456;2023-03-14T02:14:29;13.93;;;13.07;;
55112;SDS011;41006;50.920;3.456;2023-03-14T02:15:02;14.15;;;13.45;;
55112;SDS011;41006;50.920;3.456;2023-03-14T02:15:35;14.57;;;13.45;;
55112;SDS011;41006;50.920;3.456;2023-03-14T02:16:05;14.40;;;13.50;;
55112;SDS011;41006;50.920;3.456;2023-03-14T02:16:40;14.43;;;13.50;;
55112;SDS011;41006;50.920;3.456;2023-03-14T02:17:11;15.48;;;14.35;;
55112;SDS011;41006;50.920;3.456;2023-03-14T02:17:41;15.10;;;13.77;;
55112;SDS011;41006;50.920;3.456;2023-03-14T02:18:15;14.48;;;13.65;;
55112;SDS011;41006;50.920;3.456;2023-03-14T02:18:48;14.45;;;13.43;;
55112;SDS011;41006;50.920;3.456;2023-03-14T02:19:20;14.18;;;13.25;;
55112;SDS011;41006;50.920;3.456;2023-03-14T02:22:12;14.73;;;13.73;;
55112;SDS011;41006;50.920;3.456;2023-03-14T02:22:44;15.13;;;14.10;;
55112;SDS011;41006;50.920;3.456;2023-03-14T02:23:15;14.90;;;14.07;;
55112;SDS011;41006;50.920;3.456;2023-03-14T02:24:02;14.80;;;13.80;;
55112;SDS011;41006;50.920;3.456;2023-03-14T02:24:38;13.95;;;12.98;;
55112;SDS011;41006;50.920;3.456;2023-03-14T02:26:43;14.35;;;13.35;;
55112;SDS011;41006;50.920;3.456;2023-03-14T02:27:18;14.93;;;13.70;;
55112;SDS011;41006;50.920;3.456;2023-03-14T02:27:49;14.48;;;13.30;;
55112;SDS011;41006;50.920;3.456;2023-03-14T02:28:20;14.63;;;13.50;;
55112;SDS011;41006;50.920;3.456;2023-03-14T02:28:53;14.00;;;13.15;;
55112;SDS011;41006;50.920;3.456;2023-03-14T02:29:23;14.63;;;13.55;;
55112;SDS011;41006;50.920;3.456;2023-03-14T02:29:57;13.32;;;12.30;;
55112;SDS011;41006;50.920;3.456;2023-03-14T02:30:29;13.02;;;12.02;;
55112;SDS011;41006;50.920;3.456;2023-03-14T02:31:02;13.60;;;12.65;;
55112;SDS011;41006;50.920;3.456;2023-03-14T02:31:33;13.77;;;13.00;;
55112;SDS011;41006;50.920;3.456;2023-03-14T02:32:03;13.68;;;12.82;;
55112;SDS011;41006;50.920;3.456;2023-03-14T02:32:37;13.68;;;12.70;;
55112;SDS011;41006;50.920;3.456;2023-03-14T02:33:11;13.27;;;12.68;;
55112;SDS011;41006;50.920;3.456;2023-03-14T02:33:45;12.85;;;11.90;;
55112;SDS011;41006;50.920;3.456;2023-03-14T02:34:15;12.73;;;11.93;;
55112;SDS011;41006;50.920;3.456;2023-03-14T02:34:49;13.02;;;11.98;;
55112;SDS011;41006;50.920;3.456;2023-03-14T02:35:21;11.75;;;10.85;;
55112;SDS011;41006;50.920;3.456;2023-03-14T02:36:01;12.43;;;11.52;;
55112;SDS011;41006;50.920;3.456;2023-03-14T02:36:32;12.27;;;11.38;;
55112;SDS011;41006;50.920;3.456;2023-03-14T02:37:02;11.43;;;10.63;;
55112;SDS011;41006;50.920;3.456;2023-03-14T02:38:17;12.10;;;11.25;;
55112;SDS011;41006;50.920;3.456;2023-03-14T02:38:37;11.35;;;10.50;;
55112;SDS011;41006;50.920;3.456;2023-03-14T02:39:14;11.40;;;10.40;;
55112;SDS011;41006;50.920;3.456;2023-03-14T02:39:48;11.40;;;10.38;;
55112;SDS011;41006;50.920;3.456;2023-03-14T02:40:24;12.13;;;10.95;;
55112;SDS011;41006;50.920;3.456;2023-03-14T02:40:56;12.43;;;11.18;;
55112;SDS011;41006;50.920;3.456;2023-03-14T02:41:28;12.23;;;10.95;;
55112;SDS011;41006;50.920;3.456;2023-03-14T02:41:58;13.18;;;12.02;;
55112;SDS011;41006;50.920;3.456;2023-03-14T02:42:28;12.10;;;11.10;;
55112;SDS011;41006;50.920;3.456;2023-03-14T02:42:59;12.70;;;11.70;;
55112;SDS011;41006;50.920;3.456;2023-03-14T02:43:34;12.00;;;11.10;;
55112;SDS011;41006;50.920;3.456;2023-03-14T02:44:04;12.40;;;11.45;;
55112;SDS011;41006;50.920;3.456;2023-03-14T02:44:34;12.98;;;11.90;;
55112;SDS011;41006;50.920;3.456;2023-03-14T02:45:39;12.82;;;11.80;;
55112;SDS011;41006;50.920;3.456;2023-03-14T02:46:19;12.05;;;11.00;;
55112;SDS011;41006;50.920;3.456;2023-03-14T02:46:52;12.02;;;10.95;;
55112;SDS011;41006;50.920;3.456;2023-03-14T02:47:28;12.10;;;10.98;;
55112;SDS011;41006;50.920;3.456;2023-03-14T02:48:02;11.82;;;10.90;;
55112;SDS011;41006;50.920;3.456;2023-03-14T02:48:37;11.52;;;10.70;;
55112;SDS011;41006;50.920;3.456;2023-03-14T02:49:12;12.32;;;11.38;;
55112;SDS011;41006;50.920;3.456;2023-03-14T02:49:43;12.90;;;11.68;;
55112;SDS011;41006;50.920;3.456;2023-03-14T02:50:17;12.27;;;11.30;;
55112;SDS011;41006;50.920;3.456;2023-03-14T02:50:52;13.52;;;12.38;;
55112;SDS011;41006;50.920;3.456;2023-03-14T02:51:23;13.20;;;12.13;;
55112;SDS011;41006;50.920;3.456;2023-03-14T02:51:54;13.85;;;12.55;;
55112;SDS011;41006;50.920;3.456;2023-03-14T02:52:25;13.50;;;12.13;;
55112;SDS011;41006;50.920;3.456;2023-03-14T02:52:57;11.90;;;10.98;;
55112;SDS011;41006;50.920;3.456;2023-03-14T02:53:29;12.43;;;11.40;;
55112;SDS011;41006;50.920;3.456;2023-03-14T02:54:01;12.45;;;11.20;;
55112;SDS011;41006;50.920;3.456;2023-03-14T02:54:32;11.80;;;10.88;;
55112;SDS011;41006;50.920;3.456;2023-03-14T02:55:04;12.15;;;11.00;;
55112;SDS011;41006;50.920;3.456;2023-03-14T02:55:35;12.55;;;11.60;;
55112;SDS011;41006;50.920;3.456;2023-03-14T02:56:08;13.85;;;11.85;;
55112;SDS011;41006;50.920;3.456;2023-03-14T02:56:38;11.80;;;10.60;;
55112;SDS011;41006;50.920;3.456;2023-03-14T02:57:09;12.35;;;11.27;;
55112;SDS011;41006;50.920;3.456;2023-03-14T02:57:39;12.45;;;11.10;;
55112;SDS011;41006;50.920;3.456;2023-03-14T02:58:12;13.88;;;12.50;;
55112;SDS011;41006;50.920;3.456;2023-03-14T02:58:42;13.02;;;11.55;;
55112;SDS011;41006;50.920;3.456;2023-03-14T02:59:15;10.98;;;10.18;;
55112;SDS011;41006;50.920;3.456;2023-03-14T02:59:51;11.65;;;10.65;;
55112;SDS011;41006;50.920;3.456;2023-03-14T03:00:21;13.77;;;10.57;;
55112;SDS011;41006;50.920;3.456;2023-03-14T03:00:52;11.38;;;10.48;;
55112;SDS011;41006;50.920;3.456;2023-03-14T03:01:24;12.85;;;11.57;;
55112;SDS011;41006;50.920;3.456;2023-03-14T03:01:55;14.80;;;11.82;;
55112;SDS011;41006;50.920;3.456;2023-03-14T03:02:26;12.77;;;11.57;;
55112;SDS011;41006;50.920;3.456;2023-03-14T03:02:59;13.45;;;10.98;;
55112;SDS011;41006;50.920;3.456;2023-03-14T03:03:32;13.70;;;10.35;;
55112;SDS011;41006;50.920;3.456;2023-03-14T03:04:02;11.80;;;10.50;;
55112;SDS011;41006;50.920;3.456;2023-03-14T03:04:32;11.80;;;10.55;;
55112;SDS011;41006;50.920;3.456;2023-03-14T03:05:03;11.43;;;10.23;;
55112;SDS011;41006;50.920;3.456;2023-03-14T03:05:35;11.60;;;10.43;;
55112;SDS011;41006;50.920;3.456;2023-03-14T03:06:06;11.00;;;10.40;;
55112;SDS011;41006;50.920;3.456;2023-03-14T03:06:38;11.82;;;10.80;;
55112;SDS011;41006;50.920;3.456;2023-03-14T03:07:09;12.60;;;9.82;;
55112;SDS011;41006;50.920;3.456;2023-03-14T03:07:40;17.05;;;10.70;;
55112;SDS011;41006;50.920;3.456;2023-03-14T03:08:10;12.65;;;10.30;;
55112;SDS011;41006;50.920;3.456;2023-03-14T03:08:40;11.73;;;9.80;;
55112;SDS011;41006;50.920;3.456;2023-03-14T03:09:13;13.77;;;8.98;;
55112;SDS011;41006;50.920;3.456;2023-03-14T03:09:43;10.82;;;9.13;;
55112;SDS011;41006;50.920;3.456;2023-03-14T03:10:14;11.43;;;10.38;;
55112;SDS011;41006;50.920;3.456;2023-03-14T03:10:46;12.40;;;9.73;;
55112;SDS011;41006;50.920;3.456;2023-03-14T03:11:19;10.07;;;9.07;;
55112;SDS011;41006;50.920;3.456;2023-03-14T03:11:49;10.43;;;9.40;;
55112;SDS011;41006;50.920;3.456;2023-03-14T03:12:21;12.15;;;9.13;;
55112;SDS011;41006;50.920;3.456;2023-03-14T03:12:52;10.85;;;9.98;;
55112;SDS011;41006;50.920;3.456;2023-03-14T03:13:22;15.52;;;10.20;;
55112;SDS011;41006;50.920;3.456;2023-03-14T03:13:54;13.70;;;9.52;;
55112;SDS011;41006;50.920;3.456;2023-03-14T03:14:27;11.73;;;9.68;;
55112;SDS011;41006;50.920;3.456;2023-03-14T03:14:57;11.77;;;9.60;;
55112;SDS011;41006;50.920;3.456;2023-03-14T03:15:30;10.73;;;9.63;;
55112;SDS011;41006;50.920;3.456;2023-03-14T03:16:03;12.40;;;10.57;;
55112;SDS011;41006;50.920;3.456;2023-03-14T03:16:36;14.57;;;9.98;;
55112;SDS011;41006;50.920;3.456;2023-03-14T03:17:06;10.80;;;9.75;;